Time;durP1;ratioP1;P1;durP2;ratioP2;P2;SDS_P1;SDS_P2;PMS_P1;PMS_P2;Temp;Humidity;BMP_temperature;BMP_pressure;BME280_temperature;BME280_humidity;BME280_pressure;Samples;Min_cycle;Max_cycle;Signal;HPM_P1;HPM_P2
2021/10/11 00:02:00;;;;;;;25.93;16.33;;;8.20;99.10;;;;;;5055335;28;20452;-52
2021/10/11 00:04:27;;;;;;;16.50;14.10;;;7.60;98.90;;;;;;5073529;28;20439;-51
2021/10/11 00:06:54;;;;;;;20.50;14.93;;;7.50;98.90;;;;;;5073526;28;20702;-52
2021/10/11 00:09:24;;;;;;;20.40;14.87;;;8.10;99.20;;;;;;5073052;28;20562;-52
2021/10/11 00:11:50;;;;;;;23.50;15.93;;;8.10;99.10;;;;;;5073480;28;20428;-52
2021/10/11 00:14:17;;;;;;;21.97;17.70;;;8.00;99.20;;;;;;5074051;28;20416;-52
2021/10/11 00:16:44;;;;;;;19.30;15.03;;;7.90;99.10;;;;;;5074231;28;20432;-52
2021/10/11 00:19:11;;;;;;;22.40;16.80;;;7.90;99.20;;;;;;5073445;28;20842;-52
2021/10/11 00:21:37;;;;;;;23.00;15.70;;;7.90;99.30;;;;;;5073934;28;20478;-52
2021/10/11 00:24:05;;;;;;;23.43;15.60;;;7.90;99.30;;;;;;5073977;28;20513;-52
2021/10/11 00:26:33;;;;;;;20.93;14.53;;;7.80;99.40;;;;;;5055303;28;20430;-52
2021/10/11 00:28:59;;;;;;;26.60;16.33;;;7.90;99.50;;;;;;5072625;28;20474;-52
2021/10/11 00:31:26;;;;;;;28.83;17.20;;;7.80;99.60;;;;;;5072977;28;20831;-52
2021/10/11 00:33:53;;;;;;;25.33;17.80;;;7.80;99.70;;;;;;5073138;28;20531;-52
2021/10/11 00:36:20;;;;;;;24.77;16.17;;;7.80;99.80;;;;;;5055047;28;20414;-53
2021/10/11 00:38:46;;;;;;;23.27;16.80;;;7.70;99.90;;;;;;5072348;28;20469;-52
2021/10/11 00:41:13;;;;;;;21.40;16.80;;;7.60;99.80;;;;;;5072842;28;20405;-52
2021/10/11 00:43:41;;;;;;;23.17;15.13;;;7.60;99.90;;;;;;5072695;28;20528;-52
2021/10/11 00:46:11;;;;;;;18.57;14.97;;;7.80;99.90;;;;;;5054804;28;20483;-52
2021/10/11 00:48:38;;;;;;;28.33;16.17;;;7.80;99.90;;;;;;5072042;28;20415;-52
2021/10/11 00:51:05;;;;;;;22.43;14.77;;;7.90;99.90;;;;;;5072411;28;20536;-52
2021/10/11 00:53:32;;;;;;;23.30;16.00;;;7.70;99.90;;;;;;5054598;28;21023;-52
2021/10/11 00:55:59;;;;;;;20.50;15.80;;;7.70;99.90;;;;;;5054491;28;20492;-52
2021/10/11 00:58:26;;;;;;;20.83;15.77;;;7.60;99.90;;;;;;5054020;28;20486;-52
2021/10/11 01:00:55;;;;;;;25.43;16.83;;;7.50;99.90;;;;;;5072184;28;20429;-52
2021/10/11 01:03:22;;;;;;;18.47;14.93;;;7.70;99.90;;;;;;5053937;28;20482;-52
2021/10/11 01:05:51;;;;;;;20.20;15.10;;;7.70;99.90;;;;;;5072309;28;20417;-52
2021/10/11 01:08:18;;;;;;;24.53;15.10;;;7.30;99.90;;;;;;5071913;28;20522;-52
2021/10/11 01:10:49;;;;;;;20.40;16.17;;;7.20;99.90;;;;;;5072152;28;20459;-52
2021/10/11 01:13:16;;;;;;;25.40;17.47;;;7.80;99.90;;;;;;5071991;28;20989;-52
2021/10/11 01:15:43;;;;;;;18.10;15.47;;;7.50;99.90;;;;;;5072479;28;20413;-52
2021/10/11 01:18:11;;;;;;;23.13;17.03;;;7.50;99.90;;;;;;5071744;28;21007;-52
2021/10/11 01:20:41;;;;;;;18.47;15.47;;;7.40;99.90;;;;;;5072093;28;20412;-51
2021/10/11 01:23:08;;;;;;;21.40;15.67;;;7.70;99.90;;;;;;5071990;28;21013;-51
2021/10/11 01:25:35;;;;;;;23.30;16.20;;;7.50;99.90;;;;;;5071975;28;20488;-52
2021/10/11 01:28:02;;;;;;;22.53;16.23;;;7.70;99.90;;;;;;5053642;28;20466;-52
2021/10/11 01:30:28;;;;;;;19.57;15.67;;;7.40;99.90;;;;;;5071811;28;20946;-52
2021/10/11 01:32:55;;;;;;;19.17;16.40;;;7.60;99.90;;;;;;5072393;28;20520;-52
2021/10/11 01:35:22;;;;;;;20.73;15.70;;;7.50;99.90;;;;;;5072369;28;20442;-52
2021/10/11 01:37:51;;;;;;;19.00;16.20;;;7.70;99.90;;;;;;5071648;28;20421;-52
2021/10/11 01:40:20;;;;;;;23.07;15.70;;;7.50;99.90;;;;;;5071908;28;20414;-52
2021/10/11 01:42:47;;;;;;;19.67;15.20;;;7.50;99.90;;;;;;5054050;28;20479;-52
2021/10/11 01:45:15;;;;;;;19.73;15.93;;;7.70;99.90;;;;;;5054029;28;20890;-52
2021/10/11 01:47:41;;;;;;;23.53;16.80;;;7.70;99.90;;;;;;5071567;28;20500;-52
2021/10/11 01:50:09;;;;;;;23.07;16.57;;;7.30;99.90;;;;;;5071952;28;20453;-52
2021/10/11 01:52:39;;;;;;;21.03;16.00;;;7.60;99.90;;;;;;5053795;28;21022;-52
2021/10/11 01:55:09;;;;;;;22.10;15.77;;;7.50;99.90;;;;;;5071984;28;20727;-52
2021/10/11 01:57:36;;;;;;;24.20;18.47;;;7.60;99.90;;;;;;5071544;28;20527;-53
2021/10/11 02:00:06;;;;;;;23.40;16.23;;;7.70;99.90;;;;;;5071541;28;20413;-52
2021/10/11 02:02:32;;;;;;;22.20;16.17;;;7.90;99.90;;;;;;5072885;28;20457;-52
2021/10/11 02:04:59;;;;;;;19.17;15.50;;;7.60;99.90;;;;;;5071998;28;20414;-52
2021/10/11 02:07:26;;;;;;;25.07;14.87;;;7.80;99.90;;;;;;5053900;28;20445;-52
2021/10/11 02:09:52;;;;;;;22.17;16.17;;;7.80;99.90;;;;;;5071067;28;20506;-52
2021/10/11 02:12:21;;;;;;;26.67;16.87;;;7.60;99.90;;;;;;5071812;28;20997;-52
2021/10/11 02:14:50;;;;;;;22.33;15.73;;;7.80;99.90;;;;;;5072583;28;20504;-52
2021/10/11 02:17:21;;;;;;;24.07;15.83;;;7.70;99.90;;;;;;5075990;28;20921;-53
2021/10/11 02:19:51;;;;;;;24.63;16.10;;;7.60;99.90;;;;;;5076183;28;20409;-52
2021/10/11 02:22:23;;;;;;;22.13;16.80;;;7.90;99.90;;;;;;5058126;28;20553;-52
2021/10/11 02:24:50;;;;;;;20.70;14.43;;;7.80;99.90;;;;;;5076421;28;20477;-52
2021/10/11 02:27:16;;;;;;;22.10;16.80;;;7.80;99.90;;;;;;5057973;28;20535;-52
2021/10/11 02:29:44;;;;;;;21.53;16.90;;;7.90;99.90;;;;;;5075152;28;20858;-51
2021/10/11 02:32:11;;;;;;;19.43;15.77;;;7.90;99.90;;;;;;5057147;28;20561;-52
2021/10/11 02:34:38;;;;;;;20.20;16.43;;;8.00;99.90;;;;;;5075290;28;20434;-52
2021/10/11 02:37:05;;;;;;;19.93;14.97;;;7.80;99.90;;;;;;5075154;28;20498;-51
2021/10/11 02:39:31;;;;;;;25.57;16.10;;;7.70;99.90;;;;;;5074766;28;20438;-53
2021/10/11 02:41:58;;;;;;;22.60;15.47;;;8.10;99.90;;;;;;5057617;28;20919;-53
2021/10/11 02:44:25;;;;;;;18.80;13.80;;;7.90;99.90;;;;;;5075084;28;20445;-52
2021/10/11 02:46:54;;;;;;;20.20;15.47;;;8.10;99.90;;;;;;5074798;28;20526;-52
2021/10/11 02:49:23;;;;;;;21.27;15.03;;;8.10;99.90;;;;;;5074569;28;20487;-52
2021/10/11 02:51:52;;;;;;;21.47;16.27;;;8.00;99.90;;;;;;5075852;28;20512;-52
2021/10/11 02:54:19;;;;;;;21.87;16.20;;;7.80;99.90;;;;;;5074842;28;20459;-52
2021/10/11 02:56:46;;;;;;;20.80;16.70;;;8.10;99.90;;;;;;5074748;28;20517;-52
2021/10/11 02:59:13;;;;;;;21.97;15.80;;;8.00;99.90;;;;;;5074618;28;20463;-52
2021/10/11 03:01:40;;;;;;;20.30;15.03;;;8.20;99.90;;;;;;5074497;28;20462;-52
2021/10/11 03:04:08;;;;;;;21.00;16.67;;;8.10;99.90;;;;;;5074443;28;20517;-52
2021/10/11 03:06:34;;;;;;;18.23;14.93;;;8.10;99.90;;;;;;5056559;28;20414;-52
2021/10/11 03:09:01;;;;;;;21.60;16.00;;;8.20;99.90;;;;;;5056071;28;20546;-52
2021/10/11 03:11:29;;;;;;;22.33;16.30;;;8.20;99.90;;;;;;5074252;28;20479;-52
2021/10/11 03:13:57;;;;;;;22.87;16.30;;;8.40;99.90;;;;;;5074324;28;20442;-52
2021/10/11 03:16:25;;;;;;;20.13;15.30;;;8.40;99.90;;;;;;5056754;28;20505;-52
2021/10/11 03:18:52;;;;;;;19.70;15.73;;;8.40;99.90;;;;;;5057148;28;20555;-53
2021/10/11 03:21:21;;;;;;;21.57;14.60;;;8.20;99.90;;;;;;5076313;28;20518;-52
2021/10/11 03:23:49;;;;;;;23.80;16.47;;;8.40;99.90;;;;;;5056978;28;20474;-52
2021/10/11 03:26:20;;;;;;;20.10;14.90;;;8.30;99.90;;;;;;5056408;28;20455;-52
2021/10/11 03:28:47;;;;;;;19.33;14.47;;;7.90;99.90;;;;;;5074294;28;20568;-52
2021/10/11 03:31:14;;;;;;;18.33;14.83;;;8.30;99.90;;;;;;5073927;28;20486;-52
2021/10/11 03:33:41;;;;;;;18.97;15.73;;;8.40;99.90;;;;;;5073922;28;20459;-53
2021/10/11 03:36:08;;;;;;;21.67;15.70;;;8.20;99.90;;;;;;5055990;28;20426;-52
2021/10/11 03:38:36;;;;;;;21.43;15.23;;;8.20;99.90;;;;;;5073580;28;20456;-52
2021/10/11 03:41:03;;;;;;;26.23;14.50;;;8.30;99.90;;;;;;5073993;28;20527;-52
2021/10/11 03:43:30;;;;;;;20.07;15.47;;;8.50;99.90;;;;;;5073581;28;21057;-52
2021/10/11 03:45:58;;;;;;;26.97;15.07;;;8.30;99.90;;;;;;5055742;28;20448;-52
2021/10/11 03:48:24;;;;;;;19.93;13.57;;;8.30;99.90;;;;;;5073459;28;20444;-52
2021/10/11 03:50:51;;;;;;;22.20;15.20;;;8.40;99.90;;;;;;5055736;28;20486;-52
2021/10/11 03:53:18;;;;;;;19.33;14.13;;;8.50;99.90;;;;;;5073569;28;20448;-52
2021/10/11 03:55:46;;;;;;;24.13;15.37;;;7.90;99.90;;;;;;5073443;28;21084;-52
2021/10/11 03:58:13;;;;;;;22.20;16.37;;;8.50;99.90;;;;;;5073086;28;20432;-52
2021/10/11 04:00:40;;;;;;;23.33;15.80;;;8.40;99.90;;;;;;5073651;28;20963;-52
2021/10/11 04:03:07;;;;;;;24.63;16.83;;;8.50;99.90;;;;;;5073744;28;20501;-52
2021/10/11 04:05:35;;;;;;;17.13;14.90;;;8.70;99.90;;;;;;5073609;28;20432;-52
2021/10/11 04:08:09;;;;;;;20.73;14.90;;;8.50;99.90;;;;;;5073831;28;20854;-52
2021/10/11 04:10:45;;;;;;;20.33;16.43;;;8.50;99.90;;;;;;5074623;28;20450;-52
2021/10/11 04:13:19;;;;;;;21.57;16.00;;;8.40;99.90;;;;;;5074214;28;20467;-52
2021/10/11 04:15:46;;;;;;;22.77;14.60;;;8.50;99.90;;;;;;5073975;28;20926;-52
2021/10/11 04:18:13;;;;;;;25.87;16.13;;;8.00;99.90;;;;;;5073912;28;20495;-52
2021/10/11 04:20:39;;;;;;;23.70;15.83;;;8.40;99.90;;;;;;5056057;28;20419;-52
2021/10/11 04:23:06;;;;;;;23.23;15.70;;;8.30;99.90;;;;;;5055991;28;20534;-52
2021/10/11 04:25:33;;;;;;;19.47;15.97;;;8.50;99.90;;;;;;5073560;28;20560;-52
2021/10/11 04:28:02;;;;;;;20.90;16.80;;;8.40;99.90;;;;;;5073366;28;20440;-52
2021/10/11 04:30:30;;;;;;;19.40;14.13;;;8.40;99.90;;;;;;5073414;28;20475;-52
2021/10/11 04:32:57;;;;;;;19.90;14.33;;;8.40;99.90;;;;;;5073289;28;20452;-53
2021/10/11 04:35:25;;;;;;;21.53;13.83;;;8.40;99.90;;;;;;5055623;28;20498;-52
2021/10/11 04:37:52;;;;;;;20.20;14.17;;;8.10;99.90;;;;;;5054920;28;20971;-52
2021/10/11 04:40:19;;;;;;;19.00;14.80;;;8.50;99.90;;;;;;5073278;28;20498;-53
2021/10/11 04:42:46;;;;;;;19.23;14.20;;;8.40;99.90;;;;;;5073196;28;20570;-52
2021/10/11 04:45:13;;;;;;;20.70;15.07;;;8.40;99.90;;;;;;5055358;28;20424;-51
2021/10/11 04:47:41;;;;;;;16.70;13.70;;;8.60;99.90;;;;;;5073173;28;20411;-52
2021/10/11 04:50:08;;;;;;;24.37;15.57;;;8.30;99.90;;;;;;5073598;28;20869;-51
2021/10/11 04:52:36;;;;;;;23.73;14.97;;;8.60;99.90;;;;;;5072667;28;20522;-52
2021/10/11 04:55:03;;;;;;;21.40;14.67;;;8.50;99.90;;;;;;5054426;28;20448;-52
2021/10/11 04:57:30;;;;;;;25.73;13.93;;;8.80;99.90;;;;;;5072326;28;20439;-52
2021/10/11 04:59:56;;;;;;;20.60;14.00;;;8.50;99.90;;;;;;5072070;28;20437;-52
2021/10/11 05:02:23;;;;;;;20.27;14.47;;;8.50;99.90;;;;;;5072330;28;20509;-52
2021/10/11 05:04:51;;;;;;;20.00;14.80;;;8.40;99.90;;;;;;5054208;28;20428;-52
2021/10/11 05:07:18;;;;;;;16.77;13.50;;;8.50;99.90;;;;;;5072061;28;20515;-52
2021/10/11 05:09:45;;;;;;;20.10;14.70;;;8.60;99.90;;;;;;5071841;28;20529;-52
2021/10/11 05:12:12;;;;;;;15.27;13.20;;;8.70;99.90;;;;;;5053911;28;20493;-52
2021/10/11 05:14:38;;;;;;;24.20;13.80;;;8.50;99.90;;;;;;5054056;28;20449;-52
2021/10/11 05:17:05;;;;;;;22.77;15.90;;;8.20;99.90;;;;;;5053763;28;20686;-53
2021/10/11 05:19:33;;;;;;;20.67;14.17;;;8.50;99.90;;;;;;5071757;28;20471;-51
2021/10/11 05:22:01;;;;;;;23.93;16.30;;;8.10;99.90;;;;;;5071845;28;20522;-52
2021/10/11 05:24:30;;;;;;;20.47;15.13;;;8.60;99.90;;;;;;5071821;28;20420;-52
2021/10/11 05:26:56;;;;;;;22.40;13.50;;;8.50;99.90;;;;;;5054853;28;20469;-52
2021/10/11 05:29:24;;;;;;;26.53;13.63;;;8.50;99.90;;;;;;5074014;28;20498;-52
2021/10/11 05:31:51;;;;;;;23.87;14.73;;;8.80;99.90;;;;;;5071929;28;20490;-52
2021/10/11 05:34:18;;;;;;;19.13;14.47;;;8.80;99.90;;;;;;5071839;28;20774;-53
2021/10/11 05:36:45;;;;;;;21.53;15.33;;;8.50;99.90;;;;;;5071502;28;21026;-53
2021/10/11 05:39:13;;;;;;;23.40;15.87;;;8.60;99.90;;;;;;5053413;28;20423;-53
2021/10/11 05:41:40;;;;;;;19.63;16.33;;;8.60;99.90;;;;;;5053470;28;20543;-52
2021/10/11 05:44:07;;;;;;;23.30;16.70;;;8.60;99.90;;;;;;5053481;28;20432;-52
2021/10/11 05:46:34;;;;;;;24.40;14.90;;;8.60;99.90;;;;;;5053390;28;20532;-52
2021/10/11 05:49:03;;;;;;;24.23;17.07;;;8.20;99.90;;;;;;5053335;28;20772;-52
2021/10/11 05:51:30;;;;;;;21.60;16.03;;;8.80;99.90;;;;;;5052029;28;21017;-53
2021/10/11 05:53:57;;;;;;;21.13;16.27;;;8.70;99.90;;;;;;5071309;28;20403;-52
2021/10/11 05:56:25;;;;;;;18.73;16.10;;;8.70;99.90;;;;;;5071159;28;20533;-53
2021/10/11 05:58:52;;;;;;;22.03;17.50;;;8.70;99.90;;;;;;5052635;28;20555;-52
2021/10/11 06:01:18;;;;;;;25.23;18.07;;;8.70;99.90;;;;;;5053132;28;20479;-52
2021/10/11 06:03:45;;;;;;;26.27;17.50;;;8.80;99.90;;;;;;5052951;28;21064;-52
2021/10/11 06:06:12;;;;;;;22.13;15.30;;;8.90;99.90;;;;;;5071206;28;20414;-52
2021/10/11 06:08:38;;;;;;;27.90;16.70;;;8.80;99.90;;;;;;5070880;28;20404;-53
2021/10/11 06:11:05;;;;;;;25.20;16.70;;;8.80;99.90;;;;;;5053052;28;20531;-53
2021/10/11 06:13:33;;;;;;;20.53;16.67;;;8.70;99.90;;;;;;5070917;28;20522;-53
2021/10/11 06:16:00;;;;;;;29.40;18.00;;;8.90;99.90;;;;;;5071363;28;20892;-52
2021/10/11 06:18:28;;;;;;;22.73;17.13;;;8.90;99.90;;;;;;5070615;28;20521;-52
2021/10/11 06:20:54;;;;;;;25.60;17.70;;;8.90;99.90;;;;;;5071183;28;20457;-52
2021/10/11 06:23:21;;;;;;;26.70;18.93;;;8.90;99.90;;;;;;5053207;28;20439;-53
2021/10/11 06:25:48;;;;;;;26.03;19.80;;;9.10;99.90;;;;;;5053009;28;20446;-52
2021/10/11 06:28:18;;;;;;;27.60;19.80;;;8.70;99.90;;;;;;5070276;28;20447;-52
2021/10/11 06:30:46;;;;;;;25.23;17.50;;;8.50;99.90;;;;;;5070876;28;20457;-52
2021/10/11 06:33:13;;;;;;;30.83;17.60;;;9.10;99.90;;;;;;5053290;28;20507;-53
2021/10/11 06:35:40;;;;;;;30.37;18.53;;;8.90;99.90;;;;;;5053248;28;21009;-53
2021/10/11 06:38:06;;;;;;;29.00;18.57;;;9.10;99.90;;;;;;5052487;28;20545;-53
2021/10/11 06:40:33;;;;;;;26.03;18.50;;;9.10;99.90;;;;;;5053053;28;20446;-53
2021/10/11 06:43:00;;;;;;;26.57;18.83;;;9.10;99.90;;;;;;5069959;28;20519;-53
2021/10/11 06:45:27;;;;;;;31.73;18.13;;;9.20;99.90;;;;;;5071538;28;21024;-52
2021/10/11 06:47:55;;;;;;;29.53;20.50;;;9.30;99.90;;;;;;5071561;28;20434;-53
2021/10/11 06:50:24;;;;;;;27.93;21.73;;;9.50;99.90;;;;;;5071094;28;20426;-53
2021/10/11 06:52:51;;;;;;;32.07;20.70;;;9.60;99.90;;;;;;5052890;28;20494;-52
2021/10/11 06:55:17;;;;;;;23.00;18.23;;;9.40;99.90;;;;;;5070695;28;20859;-52
2021/10/11 06:57:44;;;;;;;27.50;19.70;;;9.50;99.90;;;;;;5070126;28;20433;-52
2021/10/11 07:00:14;;;;;;;29.17;19.90;;;9.50;99.90;;;;;;5070906;28;20474;-52
2021/10/11 07:02:41;;;;;;;31.90;20.60;;;9.60;99.90;;;;;;5073348;28;20470;-52
2021/10/11 07:05:10;;;;;;;28.40;20.50;;;9.70;99.90;;;;;;5056588;28;20545;-52
2021/10/11 07:07:38;;;;;;;32.83;20.87;;;9.60;99.90;;;;;;5055682;28;20456;-53
2021/10/11 07:10:06;;;;;;;28.53;20.33;;;9.90;99.90;;;;;;5074211;28;20438;-52
2021/10/11 07:12:32;;;;;;;30.87;20.67;;;9.60;99.90;;;;;;5073639;28;20466;-52
2021/10/11 07:14:59;;;;;;;29.20;21.03;;;9.30;99.90;;;;;;5055819;28;20438;-53
2021/10/11 07:17:26;;;;;;;29.90;21.83;;;9.70;99.90;;;;;;5074486;28;20487;-52
2021/10/11 07:19:53;;;;;;;28.53;21.50;;;9.90;99.90;;;;;;5073857;28;20457;-53
2021/10/11 07:22:21;;;;;;;37.33;22.90;;;9.80;99.90;;;;;;5073582;28;20497;-52
2021/10/11 07:24:48;;;;;;;26.83;20.87;;;9.80;99.90;;;;;;5073992;28;20511;-52
2021/10/11 07:27:16;;;;;;;27.83;21.57;;;9.80;99.90;;;;;;5073919;28;20497;-53
2021/10/11 07:29:42;;;;;;;34.73;22.07;;;10.10;99.90;;;;;;5073611;28;20462;-53
2021/10/11 07:32:10;;;;;;;26.23;20.13;;;10.20;99.90;;;;;;5073705;28;20971;-52
2021/10/11 07:34:39;;;;;;;29.63;22.30;;;10.10;99.90;;;;;;5055373;28;20442;-55
2021/10/11 07:37:05;;;;;;;33.43;23.50;;;10.40;99.90;;;;;;5055550;28;20516;-52
2021/10/11 07:39:34;;;;;;;27.67;21.90;;;10.00;99.90;;;;;;5073411;28;21008;-52
2021/10/11 07:42:01;;;;;;;31.60;22.80;;;10.20;99.90;;;;;;5055039;28;20568;-53
2021/10/11 07:44:30;;;;;;;32.73;23.43;;;10.00;99.90;;;;;;5073517;28;20426;-52
2021/10/11 07:46:58;;;;;;;37.10;24.00;;;10.20;99.90;;;;;;5073780;28;20905;-52
2021/10/11 07:49:25;;;;;;;35.70;24.30;;;10.40;99.90;;;;;;5073186;28;20515;-52
2021/10/11 07:51:54;;;;;;;33.63;25.20;;;10.70;99.90;;;;;;5073320;28;20440;-54
2021/10/11 07:54:21;;;;;;;39.30;27.93;;;10.40;99.90;;;;;;5055269;28;20524;-53
2021/10/11 07:56:49;;;;;;;42.57;27.57;;;10.30;99.90;;;;;;5073318;28;20536;-53
2021/10/11 07:59:16;;;;;;;41.30;26.90;;;10.30;99.90;;;;;;5073489;28;20600;-53
2021/10/11 08:01:43;;;;;;;38.70;27.27;;;10.30;99.90;;;;;;5073880;28;20468;-53
2021/10/11 08:04:10;;;;;;;41.47;28.70;;;10.20;99.90;;;;;;5074067;28;20436;-53
2021/10/11 08:06:37;;;;;;;45.83;29.30;;;10.20;99.90;;;;;;5074243;28;20430;-52
2021/10/11 08:09:07;;;;;;;39.47;29.30;;;10.30;99.90;;;;;;5072814;28;20425;-53
2021/10/11 08:11:34;;;;;;;46.83;28.90;;;10.30;99.90;;;;;;5073149;28;20523;-53
2021/10/11 08:14:03;;;;;;;43.00;29.23;;;10.40;99.90;;;;;;5072058;28;20457;-52
2021/10/11 08:16:29;;;;;;;44.17;29.57;;;10.40;99.90;;;;;;5054992;28;20554;-52
2021/10/11 08:18:56;;;;;;;38.60;27.57;;;10.50;99.90;;;;;;5072707;28;20457;-53
2021/10/11 08:21:25;;;;;;;43.00;29.80;;;10.70;99.90;;;;;;5055573;28;20440;-53
2021/10/11 08:23:54;;;;;;;41.27;29.20;;;10.50;99.90;;;;;;5072773;28;20417;-53
2021/10/11 08:26:21;;;;;;;43.83;29.90;;;10.40;99.90;;;;;;5072340;28;20973;-53
2021/10/11 08:28:48;;;;;;;38.97;27.50;;;10.50;99.90;;;;;;5072529;28;20495;-51
2021/10/11 08:31:16;;;;;;;38.57;27.77;;;10.50;99.90;;;;;;5071788;28;20961;-53
2021/10/11 08:33:45;;;;;;;39.20;28.33;;;10.70;99.90;;;;;;5072750;28;20501;-53
2021/10/11 08:36:13;;;;;;;35.60;26.30;;;10.60;99.90;;;;;;5072859;28;20458;-52
2021/10/11 08:38:40;;;;;;;36.47;27.03;;;10.30;99.90;;;;;;5072217;28;20436;-52
2021/10/11 08:41:07;;;;;;;37.10;29.50;;;10.70;99.90;;;;;;5072263;28;20437;-52
2021/10/11 08:43:36;;;;;;;39.10;27.43;;;10.80;99.90;;;;;;5072298;28;20428;-52
2021/10/11 08:46:03;;;;;;;35.67;27.40;;;11.00;99.90;;;;;;5071903;28;20503;-52
2021/10/11 08:48:31;;;;;;;37.70;26.87;;;11.10;99.90;;;;;;5072114;28;20477;-52
2021/10/11 08:50:58;;;;;;;37.53;27.03;;;11.00;99.90;;;;;;5072424;28;20496;-53
2021/10/11 08:53:25;;;;;;;34.17;26.77;;;11.20;99.90;;;;;;5053623;28;20567;-53
2021/10/11 08:55:52;;;;;;;34.90;27.93;;;11.20;99.90;;;;;;5053879;28;20915;-53
2021/10/11 08:58:19;;;;;;;35.63;25.87;;;11.10;99.90;;;;;;5053318;28;20817;-53
2021/10/11 09:00:49;;;;;;;34.67;26.33;;;11.30;99.90;;;;;;5072406;28;20509;-53
2021/10/11 09:03:18;;;;;;;32.47;25.60;;;11.10;99.90;;;;;;5053994;28;20552;-53
2021/10/11 09:05:47;;;;;;;31.90;24.13;;;11.40;99.90;;;;;;5072017;28;20481;-53
2021/10/11 09:08:16;;;;;;;34.63;27.07;;;11.20;99.90;;;;;;5053295;28;20449;-53
2021/10/11 09:10:54;;;;;;;33.67;25.67;;;11.20;99.90;;;;;;5071617;28;20404;-53
2021/10/11 09:13:22;;;;;;;39.40;31.33;;;11.00;99.90;;;;;;5071094;28;21021;-53
2021/10/11 09:15:52;;;;;;;36.90;26.60;;;11.20;99.90;;;;;;5071437;28;20939;-53
2021/10/11 09:18:28;;;;;;;38.30;26.20;;;11.40;99.90;;;;;;5070852;28;20412;-53
2021/10/11 09:20:57;;;;;;;37.20;25.97;;;11.50;99.90;;;;;;5071856;28;20437;-53
2021/10/11 09:23:29;;;;;;;33.30;24.10;;;11.50;99.90;;;;;;5072936;28;20545;-52
2021/10/11 09:25:56;;;;;;;38.77;24.40;;;11.60;99.90;;;;;;5072444;28;20417;-53
2021/10/11 09:28:25;;;;;;;32.83;24.87;;;11.40;99.90;;;;;;5053220;28;20428;-53
2021/10/11 09:30:52;;;;;;;30.77;24.53;;;11.30;99.90;;;;;;5071478;28;20452;-53
2021/10/11 09:33:21;;;;;;;34.20;25.47;;;11.20;99.90;;;;;;5071039;28;20464;-53
2021/10/11 09:35:50;;;;;;;29.60;23.30;;;11.80;99.90;;;;;;5070528;28;20408;-53
2021/10/11 09:38:25;;;;;;;38.20;24.50;;;11.20;99.90;;;;;;5070653;28;20440;-53
2021/10/11 09:40:54;;;;;;;31.43;23.37;;;11.70;99.90;;;;;;5053261;28;20564;-53
2021/10/11 09:43:22;;;;;;;31.67;23.70;;;11.50;99.90;;;;;;5052662;28;20474;-53
2021/10/11 09:45:50;;;;;;;39.10;24.70;;;11.30;99.90;;;;;;5071208;28;20442;-53
2021/10/11 09:48:17;;;;;;;32.03;24.27;;;11.50;99.90;;;;;;5070948;28;20408;-53
2021/10/11 09:50:44;;;;;;;33.77;24.60;;;11.30;99.90;;;;;;5071023;28;20416;-53
2021/10/11 09:53:13;;;;;;;30.10;24.37;;;11.20;99.90;;;;;;5071201;28;20871;-53
2021/10/11 09:55:44;;;;;;;31.90;22.27;;;11.60;99.90;;;;;;5071422;28;21017;-53
2021/10/11 09:58:11;;;;;;;39.40;24.27;;;11.80;99.90;;;;;;5052778;28;20464;-53
2021/10/11 10:00:38;;;;;;;29.17;22.93;;;11.80;99.90;;;;;;5070631;28;20524;-53
2021/10/11 10:03:05;;;;;;;36.07;25.10;;;11.50;99.90;;;;;;5070581;28;20507;-52
2021/10/11 10:05:35;;;;;;;29.57;24.00;;;11.90;99.90;;;;;;5070693;28;20444;-52
2021/10/11 10:08:07;;;;;;;33.73;24.60;;;11.60;99.90;;;;;;5070763;28;20448;-52
2021/10/11 10:10:35;;;;;;;30.13;24.07;;;11.60;99.90;;;;;;5070780;28;20447;-53
2021/10/11 10:13:15;;;;;;;26.20;21.97;;;11.80;99.90;;;;;;5070618;28;20478;-52
2021/10/11 10:15:42;;;;;;;27.30;22.10;;;11.70;99.90;;;;;;5052804;28;20453;-53
2021/10/11 10:18:09;;;;;;;41.07;22.80;;;11.50;99.90;;;;;;5070439;28;20413;-52
2021/10/11 10:20:49;;;;;;;32.47;23.43;;;11.50;99.90;;;;;;5070531;28;20406;-52
2021/10/11 10:23:23;;;;;;;35.10;24.37;;;11.60;99.90;;;;;;5070734;28;21004;-52
2021/10/11 10:25:50;;;;;;;29.37;24.37;;;11.90;99.90;;;;;;5070548;28;20904;-53
2021/10/11 10:28:18;;;;;;;25.57;21.17;;;12.00;99.90;;;;;;5052356;28;20493;-52
2021/10/11 10:30:56;;;;;;;32.70;23.07;;;11.80;99.90;;;;;;5070564;28;20903;-53
2021/10/11 10:33:33;;;;;;;28.43;21.23;;;11.70;99.90;;;;;;5070495;28;20484;-53
2021/10/11 10:36:00;;;;;;;29.77;19.60;;;12.00;99.90;;;;;;5070446;28;20770;-52
2021/10/11 10:38:27;;;;;;;28.63;19.77;;;11.90;99.90;;;;;;5073994;28;20434;-53
2021/10/11 10:40:54;;;;;;;27.13;19.90;;;12.10;99.90;;;;;;5076497;28;20548;-52
2021/10/11 10:43:23;;;;;;;30.17;20.27;;;12.20;99.90;;;;;;5073619;28;20469;-53
2021/10/11 10:45:49;;;;;;;25.23;17.27;;;11.90;99.90;;;;;;5072921;28;20433;-53
2021/10/11 10:48:18;;;;;;;27.20;19.23;;;12.00;99.90;;;;;;5072436;28;20457;-53
2021/10/11 10:50:45;;;;;;;25.77;19.50;;;11.90;99.90;;;;;;5072872;28;20426;-53
2021/10/11 10:53:12;;;;;;;23.97;19.07;;;12.50;99.90;;;;;;5072951;28;20492;-53
2021/10/11 10:55:39;;;;;;;24.30;16.97;;;12.50;99.90;;;;;;5073019;28;20431;-53
2021/10/11 10:58:08;;;;;;;23.00;17.43;;;12.20;99.90;;;;;;5072114;28;20871;-53
2021/10/11 11:00:36;;;;;;;25.70;15.30;;;12.30;99.90;;;;;;5054359;28;20460;-53
2021/10/11 11:03:03;;;;;;;28.20;15.37;;;12.20;99.90;;;;;;5072644;28;20458;-53
2021/10/11 11:05:30;;;;;;;24.77;15.97;;;12.00;99.90;;;;;;5072403;28;20764;-53
2021/10/11 11:07:58;;;;;;;21.73;15.20;;;12.40;99.90;;;;;;5072295;28;20441;-53
2021/10/11 11:10:26;;;;;;;20.73;14.80;;;12.40;99.90;;;;;;5072908;28;20437;-53
2021/10/11 11:12:55;;;;;;;21.27;13.47;;;12.20;99.90;;;;;;5054460;28;20474;-53
2021/10/11 11:15:26;;;;;;;22.40;13.93;;;12.20;99.90;;;;;;5072619;28;20455;-53
2021/10/11 11:17:56;;;;;;;15.37;11.20;;;12.50;99.90;;;;;;5071795;28;20439;-53
2021/10/11 11:20:26;;;;;;;17.40;12.17;;;12.60;99.90;;;;;;5072781;28;20785;-53
2021/10/11 11:22:55;;;;;;;14.90;10.60;;;12.40;99.90;;;;;;5072305;28;20473;-53
2021/10/11 11:25:29;;;;;;;15.27;10.47;;;12.90;99.90;;;;;;5072000;28;20407;-53
2021/10/11 11:27:57;;;;;;;15.27;11.60;;;13.10;99.90;;;;;;5071910;28;20512;-53
2021/10/11 11:30:25;;;;;;;14.90;10.77;;;13.20;99.90;;;;;;5072221;28;20443;-53
2021/10/11 11:32:55;;;;;;;13.80;10.00;;;13.20;99.90;;;;;;5072254;28;20490;-54
2021/10/11 11:35:24;;;;;;;16.50;11.03;;;13.90;99.90;;;;;;5072321;28;20441;-53
2021/10/11 11:37:53;;;;;;;15.77;11.07;;;13.80;99.90;;;;;;5071770;28;20439;-52
2021/10/11 11:40:24;;;;;;;12.87;10.77;;;13.50;99.90;;;;;;5072680;28;20411;-52
2021/10/11 11:42:52;;;;;;;21.20;9.52;;;13.80;99.90;;;;;;5037612;28;1012090;-53
2021/10/11 11:45:20;;;;;;;20.47;12.50;;;14.10;99.90;;;;;;5073542;28;20193;-53
2021/10/11 11:47:47;;;;;;;19.17;14.17;;;14.30;99.90;;;;;;5072322;28;20527;-53
2021/10/11 11:50:33;;;;;;;15.90;12.90;;;14.30;99.90;;;;;;5073049;28;20437;-52
2021/10/11 11:53:02;;;;;;;22.23;13.10;;;14.40;99.90;;;;;;5072937;28;20837;-53
2021/10/11 11:55:29;;;;;;;16.10;10.50;;;14.70;99.90;;;;;;5073107;28;20433;-53
2021/10/11 11:57:57;;;;;;;16.30;9.57;;;14.80;99.90;;;;;;5073693;28;20414;-53
2021/10/11 12:00:25;;;;;;;17.03;8.13;;;15.00;99.90;;;;;;5073762;28;20455;-53
2021/10/11 12:02:53;;;;;;;13.73;8.80;;;15.10;99.90;;;;;;5072677;28;20517;-54
2021/10/11 12:05:20;;;;;;;19.27;9.43;;;15.10;99.90;;;;;;5073258;28;20936;-53
2021/10/11 12:07:48;;;;;;;18.63;10.33;;;15.00;99.90;;;;;;5072655;28;20443;-54
2021/10/11 12:10:20;;;;;;;16.53;9.70;;;14.90;99.90;;;;;;5054535;28;20839;-53
2021/10/11 12:12:47;;;;;;;13.30;7.63;;;15.00;99.90;;;;;;5073040;28;20439;-53
2021/10/11 12:15:22;;;;;;;13.60;6.00;;;15.10;99.90;;;;;;5073052;28;20944;-53
2021/10/11 12:17:49;;;;;;;16.40;7.10;;;15.30;99.90;;;;;;5072213;28;20407;-53
2021/10/11 12:20:17;;;;;;;11.87;6.83;;;14.80;99.90;;;;;;5072838;28;20439;-53
2021/10/11 12:22:43;;;;;;;14.57;7.13;;;14.60;99.90;;;;;;5072945;28;20450;-53
2021/10/11 12:25:11;;;;;;;10.60;6.60;;;14.60;99.90;;;;;;5072664;28;20455;-53
2021/10/11 12:27:39;;;;;;;13.43;6.10;;;14.60;99.90;;;;;;5054181;28;20542;-53
2021/10/11 12:30:09;;;;;;;13.20;5.93;;;14.70;99.90;;;;;;5054593;28;20456;-52
2021/10/11 12:32:37;;;;;;;11.20;6.53;;;14.70;99.90;;;;;;5072619;28;20526;-53
2021/10/11 12:35:05;;;;;;;8.63;5.13;;;14.60;99.90;;;;;;5072442;28;20434;-53
2021/10/11 12:37:40;;;;;;;11.40;6.30;;;14.60;99.90;;;;;;5072205;28;20448;-52